createdAt,value
2016-07-12T00:00:02.923Z,19.1
2016-07-12T00:00:12.926Z,19.2
2016-07-12T00:00:22.929Z,19.1
2016-07-12T00:00:32.933Z,19.2
2016-07-12T00:00:42.932Z,19.2
2016-07-12T00:00:52.940Z,19.1
2016-07-12T00:01:02.940Z,19.1
2016-07-12T00:01:12.942Z,19.1
2016-07-12T00:01:22.944Z,19.2
2016-07-12T00:01:32.945Z,19.1
2016-07-12T00:01:42.949Z,19.1
2016-07-12T00:01:52.953Z,19.2
2016-07-12T00:02:02.954Z,19.1
2016-07-12T00:02:12.958Z,19.1
2016-07-12T00:02:22.961Z,19.2
2016-07-12T00:02:32.232Z,19.1
2016-07-12T00:02:42.964Z,19.1
2016-07-12T00:02:52.967Z,19.1
2016-07-12T00:03:02.968Z,19.1
2016-07-12T00:03:12.969Z,19.1
2016-07-12T00:03:22.975Z,19.1
2016-07-12T00:03:32.982Z,19.2
2016-07-12T00:03:42.980Z,19.1
2016-07-12T00:03:52.982Z,19
2016-07-12T00:04:02.998Z,19.1
2016-07-12T00:04:12.989Z,19.1
2016-07-12T00:04:22.995Z,19.1
2016-07-12T00:04:32.991Z,19.2
2016-07-12T00:04:42.995Z,19.1
2016-07-12T00:04:52.996Z,19.1
2016-07-12T00:05:03.000Z,19.1
2016-07-12T00:05:13.004Z,19.1
2016-07-12T00:05:23.005Z,19.1
2016-07-12T00:05:33.014Z,19.1
2016-07-12T00:05:42.282Z,19.1
2016-07-12T00:05:53.013Z,19.1
2016-07-12T00:06:03.013Z,19.1
2016-07-12T00:06:13.020Z,19.1
2016-07-12T00:06:23.022Z,19.1
2016-07-12T00:06:33.024Z,19
2016-07-12T00:06:43.028Z,19.1
2016-07-12T00:06:53.030Z,19
2016-07-12T00:07:03.032Z,19
2016-07-12T00:07:13.035Z,19
2016-07-12T00:07:23.037Z,19.1
2016-07-12T00:07:33.044Z,19
2016-07-12T00:07:43.043Z,19
2016-07-12T00:07:53.049Z,19.1
2016-07-12T00:08:03.050Z,19
2016-07-12T00:08:13.051Z,19.1
2016-07-12T00:08:23.055Z,19.1
2016-07-12T00:08:33.055Z,19.1
2016-07-12T00:08:43.059Z,19.1
2016-07-12T00:08:53.073Z,19.1
2016-07-12T00:09:03.062Z,19
2016-07-12T00:09:13.067Z,19.1
2016-07-12T00:09:23.067Z,19.1
2016-07-12T00:09:33.074Z,19
2016-07-12T00:09:43.074Z,19
2016-07-12T00:09:53.075Z,19.1
2016-07-12T00:10:03.087Z,19
2016-07-12T00:10:13.080Z,19
2016-07-12T00:10:23.086Z,19
2016-07-12T00:10:33.087Z,19
2016-07-12T00:10:43.091Z,19
2016-07-12T00:10:53.091Z,19
2016-07-12T00:11:03.093Z,19
2016-07-12T00:11:13.099Z,19
2016-07-12T00:11:23.098Z,19
2016-07-12T00:11:33.108Z,19.1
2016-07-12T00:11:43.103Z,19
2016-07-12T00:11:53.108Z,18.9
2016-07-12T00:12:03.108Z,18.9
2016-07-12T00:12:13.111Z,19
2016-07-12T00:12:23.115Z,18.9
2016-07-12T00:12:32.398Z,19
2016-07-12T00:12:43.117Z,18.9
2016-07-12T00:12:53.122Z,18.9
2016-07-12T00:13:03.125Z,18.9
2016-07-12T00:13:13.125Z,19
2016-07-12T00:13:23.128Z,19
2016-07-12T00:13:33.140Z,18.9
2016-07-12T00:13:42.412Z,18.9
2016-07-12T00:13:53.138Z,18.9
2016-07-12T00:14:03.137Z,19
2016-07-12T00:14:13.144Z,18.9
2016-07-12T00:14:23.144Z,18.9
2016-07-12T00:14:33.147Z,19
2016-07-12T00:14:43.149Z,18.9
2016-07-12T00:14:53.153Z,18.9
2016-07-12T00:15:03.155Z,18.9
2016-07-12T00:15:13.158Z,19
2016-07-12T00:15:23.159Z,19
2016-07-12T00:15:33.165Z,18.9
2016-07-12T00:15:43.167Z,18.9
2016-07-12T00:15:53.168Z,18.9
2016-07-12T00:16:03.168Z,18.9
2016-07-12T00:16:13.173Z,18.9
2016-07-12T00:16:23.175Z,18.9
2016-07-12T00:16:33.178Z,18.9
2016-07-12T00:16:43.180Z,18.9
2016-07-12T00:16:53.184Z,18.9
2016-07-12T00:17:03.186Z,18.8
2016-07-12T00:17:13.189Z,18.8
2016-07-12T00:17:23.191Z,18.8
2016-07-12T00:17:33.197Z,18.9
2016-07-12T00:17:43.196Z,18.9
2016-07-12T00:17:53.198Z,18.8
2016-07-12T00:18:03.199Z,18.8
2016-07-12T00:18:13.205Z,18.8
2016-07-12T00:18:22.476Z,18.9
2016-07-12T00:18:33.207Z,18.8
2016-07-12T00:18:43.242Z,18.9
2016-07-12T00:18:53.214Z,18.9
2016-07-12T00:19:03.218Z,18.8
2016-07-12T00:19:13.229Z,18.8
2016-07-12T00:19:23.220Z,18.8
2016-07-12T00:19:32.662Z,18.8
2016-07-12T00:19:43.226Z,18.8
2016-07-12T00:19:53.235Z,18.8
2016-07-12T00:20:03.233Z,18.8
2016-07-12T00:20:13.234Z,18.9
2016-07-12T00:20:23.237Z,18.8
2016-07-12T00:20:33.266Z,18.8
2016-07-12T00:20:43.243Z,18.8
2016-07-12T00:20:53.244Z,18.8
2016-07-12T00:21:03.251Z,18.8
2016-07-12T00:21:13.251Z,18.8
2016-07-12T00:21:23.252Z,18.8
2016-07-12T00:21:32.560Z,18.8
2016-07-12T00:21:43.258Z,18.8
2016-07-12T00:21:53.259Z,18.8
2016-07-12T00:22:03.262Z,18.8
2016-07-12T00:22:13.263Z,18.8
2016-07-12T00:22:23.267Z,18.8
2016-07-12T00:22:33.269Z,18.8
2016-07-12T00:22:43.274Z,18.8
2016-07-12T00:22:53.276Z,18.8
2016-07-12T00:23:03.501Z,18.8
2016-07-12T00:23:13.281Z,18.8
2016-07-12T00:23:23.282Z,18.8
2016-07-12T00:23:33.287Z,18.8
2016-07-12T00:23:43.287Z,18.8
2016-07-12T00:23:53.295Z,18.8
2016-07-12T00:24:03.292Z,18.8
2016-07-12T00:24:13.295Z,18.8
2016-07-12T00:24:23.297Z,18.8
2016-07-12T00:24:33.300Z,18.8
2016-07-12T00:24:43.304Z,18.8
2016-07-12T00:24:53.305Z,18.8
2016-07-12T00:25:03.309Z,18.9
2016-07-12T00:25:13.310Z,18.8
2016-07-12T00:25:23.313Z,18.8
2016-07-12T00:25:33.318Z,18.8
2016-07-12T00:25:43.323Z,18.8
2016-07-12T00:25:53.320Z,18.8
2016-07-12T00:26:03.524Z,18.8
2016-07-12T00:26:12.799Z,18.8
2016-07-12T00:26:23.328Z,18.8
2016-07-12T00:26:33.336Z,18.8
2016-07-12T00:26:43.476Z,18.8
2016-07-12T00:26:53.337Z,18.8
2016-07-12T00:27:03.336Z,18.8
2016-07-12T00:27:13.343Z,18.8
2016-07-12T00:27:23.343Z,18.7
2016-07-12T00:27:33.348Z,18.7
2016-07-12T00:27:43.348Z,18.8
2016-07-12T00:27:53.352Z,18.7
2016-07-12T00:28:03.354Z,18.8
2016-07-12T00:28:13.357Z,18.7
2016-07-12T00:28:23.360Z,18.8
2016-07-12T00:28:33.362Z,18.7
2016-07-12T00:28:43.365Z,18.8
2016-07-12T00:28:53.369Z,18.7
2016-07-12T00:29:03.372Z,18.7
2016-07-12T00:29:13.379Z,18.7
2016-07-12T00:29:23.373Z,18.6
2016-07-12T00:29:33.377Z,18.8
2016-07-12T00:29:43.381Z,18.7
2016-07-12T00:29:53.385Z,18.7
2016-07-12T00:30:03.384Z,18.7
2016-07-12T00:30:13.386Z,18.8
2016-07-12T00:30:23.392Z,18.7
2016-07-12T00:30:33.391Z,18.7
2016-07-12T00:30:43.395Z,18.7
2016-07-12T00:30:52.673Z,18.7
2016-07-12T00:31:03.402Z,18.7
2016-07-12T00:31:13.403Z,18.7
2016-07-12T00:31:23.405Z,18.7
2016-07-12T00:31:33.406Z,18.7
2016-07-12T00:31:43.409Z,18.7
2016-07-12T00:31:53.413Z,18.7
2016-07-12T00:32:03.414Z,18.7
2016-07-12T00:32:13.631Z,18.6
2016-07-12T00:32:23.432Z,18.7
2016-07-12T00:32:33.423Z,18.6
2016-07-12T00:32:43.427Z,18.6
2016-07-12T00:32:53.427Z,18.6
2016-07-12T00:33:03.435Z,18.6
2016-07-12T00:33:13.432Z,18.6
2016-07-12T00:33:23.434Z,18.7
2016-07-12T00:33:33.437Z,18.7
2016-07-12T00:33:43.458Z,18.7
2016-07-12T00:33:53.443Z,18.7
2016-07-12T00:34:03.444Z,18.6
2016-07-12T00:34:13.447Z,18.7
2016-07-12T00:34:23.451Z,18.7
2016-07-12T00:34:33.454Z,18.7
2016-07-12T00:34:43.455Z,18.6
2016-07-12T00:34:53.458Z,18.7
2016-07-12T00:35:03.461Z,18.7
2016-07-12T00:35:13.461Z,18.7
2016-07-12T00:35:23.465Z,18.7
2016-07-12T00:35:32.739Z,18.7
2016-07-12T00:35:43.469Z,18.6
2016-07-12T00:35:53.474Z,18.7
2016-07-12T00:36:03.478Z,18.7
2016-07-12T00:36:13.478Z,18.7
2016-07-12T00:36:23.479Z,18.7
2016-07-12T00:36:33.479Z,18.7
2016-07-12T00:36:42.757Z,18.6
2016-07-12T00:36:53.488Z,18.7
2016-07-12T00:37:03.492Z,18.7
2016-07-12T00:37:13.494Z,18.7
2016-07-12T00:37:23.495Z,18.6
2016-07-12T00:37:33.497Z,18.7
2016-07-12T00:37:43.505Z,18.6
2016-07-12T00:37:52.775Z,18.7
2016-07-12T00:38:03.507Z,18.6
2016-07-12T00:38:13.509Z,18.7
2016-07-12T00:38:23.512Z,18.7
2016-07-12T00:38:33.514Z,18.7
2016-07-12T00:38:43.517Z,18.6
2016-07-12T00:38:53.518Z,18.6
2016-07-12T00:39:03.521Z,18.7
2016-07-12T00:39:13.525Z,18.6
2016-07-12T00:39:22.801Z,18.6
2016-07-12T00:39:33.529Z,18.7
2016-07-12T00:39:43.532Z,18.6
2016-07-12T00:39:53.532Z,18.6
2016-07-12T00:40:03.537Z,18.7
2016-07-12T00:40:13.546Z,18.7
2016-07-12T00:40:23.542Z,18.8
2016-07-12T00:40:33.545Z,18.6
2016-07-12T00:40:43.546Z,18.7
2016-07-12T00:40:53.597Z,18.6
2016-07-12T00:41:03.551Z,18.7
2016-07-12T00:41:13.554Z,18.6
2016-07-12T00:41:23.557Z,18.6
2016-07-12T00:41:33.562Z,18.7
2016-07-12T00:41:43.561Z,18.6
2016-07-12T00:41:53.564Z,18.6
2016-07-12T00:42:03.568Z,18.6
2016-07-12T00:42:13.569Z,18.7
2016-07-12T00:42:23.573Z,18.6
2016-07-12T00:42:33.572Z,18.7
2016-07-12T00:42:43.578Z,18.7
2016-07-12T00:42:53.579Z,18.6
2016-07-12T00:43:03.581Z,18.6
2016-07-12T00:43:13.584Z,18.7
2016-07-12T00:43:23.585Z,18.7
2016-07-12T00:43:33.589Z,18.6
2016-07-12T00:43:43.595Z,18.6
2016-07-12T00:43:52.878Z,18.6
2016-07-12T00:44:03.595Z,18.6
2016-07-12T00:44:13.600Z,18.6
2016-07-12T00:44:23.607Z,18.6
2016-07-12T00:44:33.604Z,18.6
2016-07-12T00:44:42.878Z,18.7
2016-07-12T00:44:53.608Z,18.6
2016-07-12T00:45:04.894Z,18.6
2016-07-12T00:45:13.613Z,18.6
2016-07-12T00:45:23.623Z,18.6
2016-07-12T00:45:34.348Z,18.5
2016-07-12T00:45:45.162Z,18.5
2016-07-12T00:45:54.570Z,18.7
2016-07-12T00:46:03.627Z,18.6
2016-07-12T00:46:14.034Z,18.6
2016-07-12T00:46:25.198Z,18.6
2016-07-12T00:46:35.208Z,18.5
2016-07-12T00:46:45.134Z,18.6
2016-07-12T00:46:55.195Z,18.6
2016-07-12T00:47:05.254Z,18.6
2016-07-12T00:47:15.282Z,18.7
2016-07-12T00:47:23.647Z,18.6
2016-07-12T00:47:33.652Z,18.6
2016-07-12T00:47:45.079Z,18.6
2016-07-12T00:47:55.372Z,18.6
2016-07-12T00:48:05.338Z,18.6
2016-07-12T00:48:15.061Z,18.6
2016-07-12T00:48:24.012Z,18.5
2016-07-12T00:48:33.667Z,18.6
2016-07-12T00:48:43.672Z,18.6
2016-07-12T00:48:53.670Z,18.6
2016-07-12T00:49:03.677Z,18.6
2016-07-12T00:49:13.682Z,18.6
2016-07-12T00:49:23.676Z,18.6
2016-07-12T00:49:34.729Z,18.6
2016-07-12T00:49:44.512Z,18.5
2016-07-12T00:49:54.727Z,18.5
2016-07-12T00:50:05.383Z,18.6
2016-07-12T00:50:15.256Z,18.6
2016-07-12T00:50:24.449Z,18.6
2016-07-12T00:50:34.631Z,18.6
2016-07-12T00:50:44.641Z,18.7
2016-07-12T00:50:53.698Z,18.5
2016-07-12T00:51:03.703Z,18.6
2016-07-12T00:51:13.717Z,18.6
2016-07-12T00:51:25.147Z,18.6
2016-07-12T00:51:35.118Z,18.6
2016-07-12T00:51:45.138Z,18.5
2016-07-12T00:51:54.473Z,18.6
2016-07-12T00:52:05.248Z,18.5
2016-07-12T00:52:15.229Z,18.5
2016-07-12T00:52:25.277Z,18.6
2016-07-12T00:52:33.013Z,18.6
2016-07-12T00:52:43.728Z,18.6
2016-07-12T00:52:53.728Z,18.6
2016-07-12T00:53:03.735Z,18.6
2016-07-12T00:53:13.735Z,18.5
2016-07-12T00:53:23.737Z,18.6
2016-07-12T00:53:33.742Z,18.6
2016-07-12T00:53:43.744Z,18.5
2016-07-12T00:53:53.747Z,18.6
2016-07-12T00:54:03.748Z,18.6
2016-07-12T00:54:13.751Z,18.6
2016-07-12T00:54:23.753Z,18.6
2016-07-12T00:54:33.756Z,18.6
2016-07-12T00:54:43.757Z,18.6
2016-07-12T00:54:53.770Z,18.6
2016-07-12T00:55:03.808Z,18.5
2016-07-12T00:55:13.916Z,18.6
2016-07-12T00:55:23.766Z,18.5
2016-07-12T00:55:33.772Z,18.6
2016-07-12T00:55:43.774Z,18.5
2016-07-12T00:55:53.047Z,18.5
2016-07-12T00:56:03.776Z,18.6
2016-07-12T00:56:13.052Z,18.6
2016-07-12T00:56:23.785Z,18.6
2016-07-12T00:56:33.785Z,18.5
2016-07-12T00:56:43.788Z,18.6
2016-07-12T00:56:53.792Z,18.6
2016-07-12T00:57:03.798Z,18.6
2016-07-12T00:57:13.795Z,18.5
2016-07-12T00:57:23.798Z,18.5
2016-07-12T00:57:33.804Z,18.6
2016-07-12T00:57:43.804Z,18.6
2016-07-12T00:57:53.807Z,18.5
2016-07-12T00:58:03.807Z,18.5
2016-07-12T00:58:13.823Z,18.5
2016-07-12T00:58:23.812Z,18.6
2016-07-12T00:58:33.815Z,18.5
2016-07-12T00:58:43.824Z,18.5
2016-07-12T00:58:53.821Z,18.5
2016-07-12T00:59:03.827Z,18.5
2016-07-12T00:59:13.827Z,18.5
2016-07-12T00:59:23.828Z,18.6
2016-07-12T00:59:33.828Z,18.6
2016-07-12T00:59:43.834Z,18.5
2016-07-12T00:59:53.834Z,18.6
2016-07-12T01:00:03.838Z,18.5
2016-07-12T01:00:13.845Z,18.6
2016-07-12T01:00:23.841Z,18.5
2016-07-12T01:00:33.846Z,18.6
2016-07-12T01:00:43.862Z,18.5
2016-07-12T01:00:53.851Z,18.5
2016-07-12T01:01:03.855Z,18.5
2016-07-12T01:01:13.858Z,18.5
2016-07-12T01:01:23.858Z,18.6
2016-07-12T01:01:33.861Z,18.5
2016-07-12T01:01:43.866Z,18.6
2016-07-12T01:01:53.868Z,18.5
2016-07-12T01:02:03.867Z,18.5
2016-07-12T01:02:13.142Z,18.5
2016-07-12T01:02:23.987Z,18.5
2016-07-12T01:02:33.876Z,18.5
2016-07-12T01:02:43.890Z,18.5
2016-07-12T01:02:53.879Z,18.5
2016-07-12T01:03:03.882Z,18.5
2016-07-12T01:03:13.886Z,18.5
2016-07-12T01:03:23.888Z,18.5
2016-07-12T01:03:33.890Z,18.5
2016-07-12T01:03:43.900Z,18.5
2016-07-12T01:03:53.897Z,18.5
2016-07-12T01:04:03.899Z,18.5
2016-07-12T01:04:13.909Z,18.5
2016-07-12T01:04:23.904Z,18.5
2016-07-12T01:04:33.906Z,18.5
2016-07-12T01:04:43.959Z,18.5
2016-07-12T01:04:53.910Z,18.5
2016-07-12T01:05:03.933Z,18.5
2016-07-12T01:05:13.968Z,18.5
2016-07-12T01:05:23.918Z,18.5
2016-07-12T01:05:33.923Z,18.4
2016-07-12T01:05:43.927Z,18.5
2016-07-12T01:05:53.927Z,18.4
2016-07-12T01:06:03.927Z,18.4
2016-07-12T01:06:13.936Z,18.4
2016-07-12T01:06:23.935Z,18.5
2016-07-12T01:06:33.935Z,18.5
2016-07-12T01:06:43.939Z,18.4
2016-07-12T01:06:53.942Z,18.5
2016-07-12T01:07:03.948Z,18.5
2016-07-12T01:07:14.018Z,18.5
2016-07-12T01:07:23.949Z,18.4
2016-07-12T01:07:33.222Z,18.5
2016-07-12T01:07:43.954Z,18.4
2016-07-12T01:07:53.954Z,18.5
2016-07-12T01:08:03.960Z,18.5
2016-07-12T01:08:13.968Z,18.4
2016-07-12T01:08:23.964Z,18.5
2016-07-12T01:08:33.971Z,18.5
2016-07-12T01:08:43.970Z,18.5
2016-07-12T01:08:53.971Z,18.6
2016-07-12T01:09:03.975Z,18.4
2016-07-12T01:09:13.976Z,18.4
2016-07-12T01:09:24.079Z,18.5
2016-07-12T01:09:33.253Z,18.4
2016-07-12T01:09:43.985Z,18.4
2016-07-12T01:09:53.986Z,18.5
2016-07-12T01:10:03.990Z,18.4
2016-07-12T01:10:13.991Z,18.4
2016-07-12T01:10:23.995Z,18.5
2016-07-12T01:10:34.043Z,18.5
2016-07-12T01:10:43.270Z,18.4
2016-07-12T01:10:54.002Z,18.5
2016-07-12T01:11:03.274Z,18.4
2016-07-12T01:11:14.006Z,18.4
2016-07-12T01:11:24.010Z,18.4
2016-07-12T01:11:34.011Z,18.4
2016-07-12T01:11:44.015Z,18.5
2016-07-12T01:11:54.020Z,18.4
2016-07-12T01:12:04.018Z,18.4
2016-07-12T01:12:14.023Z,18.4
2016-07-12T01:12:23.294Z,18.4
2016-07-12T01:12:34.026Z,18.4
2016-07-12T01:12:43.304Z,18.4
2016-07-12T01:12:54.033Z,18.4
2016-07-12T01:13:04.034Z,18.4
2016-07-12T01:13:14.036Z,18.4
2016-07-12T01:13:23.358Z,18.4
2016-07-12T01:13:34.042Z,18.4
2016-07-12T01:13:44.044Z,18.4
2016-07-12T01:13:54.047Z,18.4
2016-07-12T01:14:04.047Z,18.3
2016-07-12T01:14:14.050Z,18.4
2016-07-12T01:14:24.054Z,18.4
2016-07-12T01:14:34.060Z,18.4
2016-07-12T01:14:43.333Z,18.3
2016-07-12T01:14:54.060Z,18.4
2016-07-12T01:15:04.063Z,18.4
2016-07-12T01:15:13.337Z,18.4
2016-07-12T01:15:24.068Z,18.4
2016-07-12T01:15:34.074Z,18.4
2016-07-12T01:15:44.073Z,18.4
2016-07-12T01:15:54.078Z,18.4
2016-07-12T01:16:04.079Z,18.4
2016-07-12T01:16:14.082Z,18.3
2016-07-12T01:16:24.083Z,18.3
2016-07-12T01:16:33.362Z,18.4
2016-07-12T01:16:43.360Z,18.3
2016-07-12T01:16:54.092Z,18.3
2016-07-12T01:17:04.097Z,18.3
2016-07-12T01:17:14.095Z,18.4
2016-07-12T01:17:24.098Z,18.2
2016-07-12T01:17:34.103Z,18.3
2016-07-12T01:17:44.105Z,18.3
2016-07-12T01:17:54.109Z,18.3
2016-07-12T01:18:04.110Z,18.3
2016-07-12T01:18:14.113Z,18.3
2016-07-12T01:18:24.113Z,18.4
2016-07-12T01:18:34.115Z,18.4
2016-07-12T01:18:44.132Z,18.4
2016-07-12T01:18:54.121Z,18.4
2016-07-12T01:19:04.123Z,18.3
2016-07-12T01:19:14.129Z,18.3
2016-07-12T01:19:24.134Z,18.3
2016-07-12T01:19:34.131Z,18.4
2016-07-12T01:19:44.130Z,18.3
2016-07-12T01:19:54.139Z,18.3
2016-07-12T01:20:04.138Z,18.4
2016-07-12T01:20:14.142Z,18.3
2016-07-12T01:20:24.143Z,18.3
2016-07-12T01:20:34.146Z,18.3
2016-07-12T01:20:44.149Z,18.3
2016-07-12T01:20:54.151Z,18.3
2016-07-12T01:21:04.157Z,18.4
2016-07-12T01:21:14.156Z,18.3
2016-07-12T01:21:24.164Z,18.3
2016-07-12T01:21:34.161Z,18.4
2016-07-12T01:21:44.162Z,18.3
2016-07-12T01:21:53.437Z,18.3
2016-07-12T01:22:04.168Z,18.4
2016-07-12T01:22:14.171Z,18.3
2016-07-12T01:22:24.174Z,18.3
2016-07-12T01:22:34.178Z,18.3
2016-07-12T01:22:44.179Z,18.3
2016-07-12T01:22:53.452Z,18.4
2016-07-12T01:23:04.184Z,18.3
2016-07-12T01:23:13.458Z,18.3
2016-07-12T01:23:24.187Z,18.3
2016-07-12T01:23:34.193Z,18.2
2016-07-12T01:23:44.194Z,18.3
2016-07-12T01:23:54.199Z,18.3
2016-07-12T01:24:04.199Z,18.3
2016-07-12T01:24:14.204Z,18.3
2016-07-12T01:24:24.204Z,18.3
2016-07-12T01:24:34.206Z,18.3
2016-07-12T01:24:44.210Z,18.3
2016-07-12T01:24:54.209Z,18.2
2016-07-12T01:25:04.214Z,18.3
2016-07-12T01:25:14.215Z,18.3
2016-07-12T01:25:24.218Z,18.3
2016-07-12T01:25:34.220Z,18.3
2016-07-12T01:25:44.225Z,18.3
2016-07-12T01:25:54.228Z,18.3
2016-07-12T01:26:04.234Z,18.2
2016-07-12T01:26:14.230Z,18.2
2016-07-12T01:26:24.232Z,18.2
2016-07-12T01:26:34.233Z,18.3
2016-07-12T01:26:44.240Z,18.2
2016-07-12T01:26:54.241Z,18.2
2016-07-12T01:27:04.243Z,18.2
2016-07-12T01:27:14.245Z,18.2
2016-07-12T01:27:24.246Z,18.2
2016-07-12T01:27:34.248Z,18.2
2016-07-12T01:27:44.253Z,18.2
2016-07-12T01:27:54.255Z,18.3
2016-07-12T01:28:04.262Z,18.3
2016-07-12T01:28:14.261Z,18.3
2016-07-12T01:28:24.265Z,18.3
2016-07-12T01:28:34.264Z,18.2
2016-07-12T01:28:44.270Z,18.3
2016-07-12T01:28:54.271Z,18.2
2016-07-12T01:29:04.275Z,18.3
2016-07-12T01:29:14.274Z,18.2
2016-07-12T01:29:24.278Z,18.2
2016-07-12T01:29:34.285Z,18.2
2016-07-12T01:29:43.554Z,18.2
2016-07-12T01:29:53.555Z,18.2
2016-07-12T01:30:04.287Z,18.3
2016-07-12T01:30:14.295Z,18.2
2016-07-12T01:30:24.295Z,18.2
2016-07-12T01:30:34.294Z,18.2
2016-07-12T01:30:44.300Z,18.3
2016-07-12T01:30:54.301Z,18.3
2016-07-12T01:31:04.304Z,18.2
2016-07-12T01:31:14.303Z,18.2
2016-07-12T01:31:24.309Z,18.2
2016-07-12T01:31:34.311Z,18.2
2016-07-12T01:31:44.315Z,18.2
2016-07-12T01:31:54.320Z,18.3
2016-07-12T01:32:04.318Z,18.2
2016-07-12T01:32:14.321Z,18.2
2016-07-12T01:32:24.333Z,18.2
2016-07-12T01:32:34.326Z,18.2
2016-07-12T01:32:44.329Z,18.2
2016-07-12T01:32:53.602Z,18.3
2016-07-12T01:33:04.338Z,18.2
2016-07-12T01:33:14.336Z,18.2
2016-07-12T01:33:24.342Z,18.2
2016-07-12T01:33:34.340Z,18.2
2016-07-12T01:33:44.344Z,18.2
2016-07-12T01:33:54.345Z,18.1
2016-07-12T01:34:04.346Z,18.2
2016-07-12T01:34:14.350Z,18.3
2016-07-12T01:34:24.352Z,18.3
2016-07-12T01:34:34.353Z,18.1
2016-07-12T01:34:44.359Z,18.2
2016-07-12T01:34:54.360Z,18.1
2016-07-12T01:35:04.365Z,18.3
2016-07-12T01:35:14.367Z,18.2
2016-07-12T01:35:24.367Z,18.2
2016-07-12T01:35:34.370Z,18.2
2016-07-12T01:35:44.370Z,18.2
2016-07-12T01:35:54.374Z,18.2
2016-07-12T01:36:04.378Z,18.1
2016-07-12T01:36:14.380Z,18.1
2016-07-12T01:36:24.381Z,18.2
2016-07-12T01:36:34.385Z,18.1
2016-07-12T01:36:44.389Z,18.2
2016-07-12T01:36:54.386Z,18.2
2016-07-12T01:37:04.391Z,18.2
2016-07-12T01:37:14.396Z,18.2
2016-07-12T01:37:24.396Z,18.2
2016-07-12T01:37:34.399Z,18.1
2016-07-12T01:37:44.401Z,18.1
2016-07-12T01:37:54.409Z,18.2
2016-07-12T01:38:04.406Z,18.2
2016-07-12T01:38:14.410Z,18.2
2016-07-12T01:38:24.413Z,18.2
2016-07-12T01:38:34.414Z,18.2
2016-07-12T01:38:44.415Z,18.1
2016-07-12T01:38:54.419Z,18.1
2016-07-12T01:39:04.425Z,18.2
2016-07-12T01:39:14.425Z,18.2
2016-07-12T01:39:24.427Z,18.2
2016-07-12T01:39:34.429Z,18.2
2016-07-12T01:39:44.431Z,18.2
2016-07-12T01:39:54.435Z,18.2
2016-07-12T01:40:03.707Z,18.2
2016-07-12T01:40:14.440Z,18.2
2016-07-12T01:40:24.440Z,18.2
2016-07-12T01:40:34.445Z,18.2
2016-07-12T01:40:44.449Z,18.2
2016-07-12T01:40:54.449Z,18.2
2016-07-12T01:41:04.455Z,18.2
2016-07-12T01:41:14.450Z,18.2
2016-07-12T01:41:24.455Z,18.2
2016-07-12T01:41:34.460Z,18.2
2016-07-12T01:41:44.460Z,18.2
2016-07-12T01:41:54.469Z,18.2
2016-07-12T01:42:04.465Z,18.2
2016-07-12T01:42:14.469Z,18.2
2016-07-12T01:42:24.470Z,18.2
2016-07-12T01:42:34.473Z,18
2016-07-12T01:42:44.478Z,18.2
2016-07-12T01:42:54.483Z,18.2
2016-07-12T01:43:04.479Z,18.1
2016-07-12T01:43:14.484Z,18.2
2016-07-12T01:43:24.485Z,18.1
2016-07-12T01:43:34.490Z,18.1
2016-07-12T01:43:44.500Z,18.2
2016-07-12T01:43:54.495Z,18.1
2016-07-12T01:44:04.494Z,18.2
2016-07-12T01:44:14.498Z,18.2
2016-07-12T01:44:24.499Z,18.1
2016-07-12T01:44:34.505Z,18
2016-07-12T01:44:44.504Z,18.2
2016-07-12T01:44:54.507Z,18.1
2016-07-12T01:45:04.510Z,18.2
2016-07-12T01:45:14.514Z,18.1
2016-07-12T01:45:24.517Z,18.1
2016-07-12T01:45:34.519Z,18.2
2016-07-12T01:45:44.519Z,18.1
2016-07-12T01:45:54.522Z,18.2
2016-07-12T01:46:04.524Z,18.2
2016-07-12T01:46:14.527Z,18.1
2016-07-12T01:46:24.531Z,18.1
2016-07-12T01:46:34.533Z,18.1
2016-07-12T01:46:44.539Z,18.2
2016-07-12T01:46:54.537Z,18.1
2016-07-12T01:47:04.538Z,18.2
2016-07-12T01:47:14.542Z,18.1
2016-07-12T01:47:24.544Z,18.2
2016-07-12T01:47:34.549Z,18.2
2016-07-12T01:47:44.549Z,18.2
2016-07-12T01:47:54.554Z,18.2
2016-07-12T01:48:04.558Z,18.1
2016-07-12T01:48:14.558Z,18.1
2016-07-12T01:48:24.559Z,18.2
2016-07-12T01:48:34.567Z,18.2
2016-07-12T01:48:44.563Z,18.1
2016-07-12T01:48:54.567Z,18.1
2016-07-12T01:49:03.838Z,18.1
2016-07-12T01:49:14.570Z,18.1
2016-07-12T01:49:24.576Z,18.1
2016-07-12T01:49:34.585Z,18.2
2016-07-12T01:49:44.579Z,18
2016-07-12T01:49:54.590Z,18.1
2016-07-12T01:50:04.596Z,18
2016-07-12T01:50:14.591Z,18.1
2016-07-12T01:50:24.590Z,18.1
2016-07-12T01:50:34.593Z,18
2016-07-12T01:50:44.595Z,18.1
2016-07-12T01:50:54.597Z,18.1
2016-07-12T01:51:04.597Z,18.1
2016-07-12T01:51:14.602Z,18
2016-07-12T01:51:24.605Z,18.1
2016-07-12T01:51:34.614Z,18
2016-07-12T01:51:44.610Z,18
2016-07-12T01:51:54.611Z,18.2
2016-07-12T01:52:04.610Z,18.1
2016-07-12T01:52:14.617Z,18.1
2016-07-12T01:52:24.620Z,18.1
2016-07-12T01:52:34.625Z,18.1
2016-07-12T01:52:44.627Z,18
2016-07-12T01:52:54.626Z,18.1
2016-07-12T01:53:04.630Z,18.1
2016-07-12T01:53:14.630Z,18
2016-07-12T01:53:24.632Z,18.1
2016-07-12T01:53:34.636Z,18.1
2016-07-12T01:53:44.637Z,18.1
2016-07-12T01:53:54.646Z,18
2016-07-12T01:54:04.642Z,18
2016-07-12T01:54:14.646Z,18
2016-07-12T01:54:24.650Z,18
2016-07-12T01:54:34.651Z,18.1
2016-07-12T01:54:44.652Z,18
2016-07-12T01:54:54.657Z,18
2016-07-12T01:55:04.657Z,18
2016-07-12T01:55:14.663Z,18
2016-07-12T01:55:24.663Z,18
2016-07-12T01:55:34.670Z,18
2016-07-12T01:55:44.667Z,18
2016-07-12T01:55:54.671Z,18.1
2016-07-12T01:56:04.671Z,18
2016-07-12T01:56:14.677Z,18
2016-07-12T01:56:24.681Z,18.1
2016-07-12T01:56:34.680Z,18
2016-07-12T01:56:44.682Z,18.1
2016-07-12T01:56:54.685Z,18
2016-07-12T01:57:04.688Z,18
2016-07-12T01:57:14.696Z,18.1
2016-07-12T01:57:24.692Z,18.1
2016-07-12T01:57:34.702Z,18
2016-07-12T01:57:44.697Z,18
2016-07-12T01:57:54.701Z,18
2016-07-12T01:58:04.700Z,18.1
2016-07-12T01:58:14.705Z,18.1
2016-07-12T01:58:24.706Z,18
2016-07-12T01:58:34.709Z,18.1
2016-07-12T01:58:44.716Z,18
2016-07-12T01:58:54.717Z,18
2016-07-12T01:59:04.719Z,18
2016-07-12T01:59:14.721Z,18
2016-07-12T01:59:24.721Z,18.1
2016-07-12T01:59:34.725Z,18
2016-07-12T01:59:44.728Z,18
2016-07-12T01:59:54.729Z,18
2016-07-12T02:00:04.732Z,18.1
2016-07-12T02:00:14.735Z,18
2016-07-12T02:00:24.739Z,18
2016-07-12T02:00:34.738Z,18
2016-07-12T02:00:44.741Z,18
2016-07-12T02:00:54.744Z,18
2016-07-12T02:01:04.746Z,18
2016-07-12T02:01:14.022Z,18
2016-07-12T02:01:24.751Z,18.1
2016-07-12T02:01:34.757Z,18
2016-07-12T02:01:44.757Z,18.1
2016-07-12T02:01:54.760Z,18
2016-07-12T02:02:04.762Z,18
2016-07-12T02:02:14.764Z,17.9
2016-07-12T02:02:24.768Z,18
2016-07-12T02:02:34.770Z,18
2016-07-12T02:02:44.771Z,18
2016-07-12T02:02:54.777Z,18
2016-07-12T02:03:04.776Z,18
2016-07-12T02:03:14.052Z,18
2016-07-12T02:03:24.782Z,18
2016-07-12T02:03:34.786Z,18.1
2016-07-12T02:03:44.785Z,18
2016-07-12T02:03:54.789Z,18
2016-07-12T02:04:04.793Z,17.9
2016-07-12T02:04:14.794Z,18
2016-07-12T02:04:24.796Z,18
2016-07-12T02:04:34.801Z,18
2016-07-12T02:04:44.800Z,17.9
2016-07-12T02:04:54.804Z,18
2016-07-12T02:05:04.806Z,18
2016-07-12T02:05:14.811Z,18
2016-07-12T02:05:24.810Z,18
2016-07-12T02:05:34.083Z,18
2016-07-12T02:05:44.816Z,18
2016-07-12T02:05:54.819Z,18
2016-07-12T02:06:04.823Z,18
2016-07-12T02:06:14.823Z,18
2016-07-12T02:06:24.831Z,18
2016-07-12T02:06:34.826Z,17.9
2016-07-12T02:06:44.833Z,18
2016-07-12T02:06:54.832Z,18
2016-07-12T02:07:04.835Z,17.9
2016-07-12T02:07:14.843Z,18
2016-07-12T02:07:24.840Z,18.1
2016-07-12T02:07:34.841Z,18.1
2016-07-12T02:07:44.847Z,18
2016-07-12T02:07:54.845Z,18.1
2016-07-12T02:08:04.852Z,18
2016-07-12T02:08:14.853Z,18
2016-07-12T02:08:24.856Z,18
2016-07-12T02:08:34.861Z,18
2016-07-12T02:08:44.860Z,18
2016-07-12T02:08:54.862Z,18
2016-07-12T02:09:04.865Z,18
2016-07-12T02:09:14.871Z,17.9
2016-07-12T02:09:24.870Z,17.9
2016-07-12T02:09:34.874Z,17.9
2016-07-12T02:09:44.875Z,17.9
2016-07-12T02:09:54.877Z,17.9
2016-07-12T02:10:04.151Z,17.8
2016-07-12T02:10:14.881Z,17.9
2016-07-12T02:10:24.890Z,17.9
2016-07-12T02:10:34.886Z,17.9
2016-07-12T02:10:44.890Z,17.9
2016-07-12T02:10:54.895Z,17.9
2016-07-12T02:11:04.894Z,17.9
2016-07-12T02:11:14.899Z,17.9
2016-07-12T02:11:24.899Z,17.9
2016-07-12T02:11:34.901Z,17.9
2016-07-12T02:11:44.903Z,17.9
2016-07-12T02:11:54.906Z,17.9
2016-07-12T02:12:04.909Z,17.9
2016-07-12T02:12:14.913Z,17.9
2016-07-12T02:12:24.917Z,17.9
2016-07-12T02:12:34.917Z,17.8
2016-07-12T02:12:44.190Z,17.8
2016-07-12T02:12:54.920Z,17.9
2016-07-12T02:13:04.924Z,17.9
2016-07-12T02:13:14.926Z,17.9
2016-07-12T02:13:24.930Z,17.9
2016-07-12T02:13:34.931Z,17.9
2016-07-12T02:13:44.933Z,17.9
2016-07-12T02:13:54.934Z,17.9
2016-07-12T02:14:04.943Z,17.9
2016-07-12T02:14:14.946Z,17.9